createdAt,value
2022-12-26T00:00:25.862Z,92.16
2022-12-26T00:02:52.345Z,92.16
2022-12-26T00:05:18.777Z,91.97
2022-12-26T00:07:45.723Z,91.92
2022-12-26T00:10:12.187Z,92.40
2022-12-26T00:12:38.578Z,92.39
2022-12-26T00:15:05.308Z,92.60
2022-12-26T00:17:31.747Z,92.33
2022-12-26T00:19:58.140Z,92.52
2022-12-26T00:22:24.555Z,92.09
2022-12-26T00:24:50.946Z,91.51
2022-12-26T00:27:17.394Z,92.01
2022-12-26T00:29:43.775Z,91.87
2022-12-26T00:32:10.165Z,92.08
2022-12-26T00:34:36.853Z,91.75
2022-12-26T00:37:03.286Z,92.17
2022-12-26T00:39:29.706Z,91.65
2022-12-26T00:41:56.114Z,91.97
2022-12-26T00:44:22.499Z,91.62
2022-12-26T00:46:48.915Z,92.15
2022-12-26T00:49:15.351Z,91.85
2022-12-26T00:51:41.733Z,91.61
2022-12-26T00:54:08.115Z,92.00
2022-12-26T00:56:34.606Z,91.92
2022-12-26T00:59:01.027Z,91.49
2022-12-26T01:01:30.820Z,91.40
2022-12-26T01:03:58.071Z,92.11
2022-12-26T01:06:24.602Z,91.99
2022-12-26T01:08:51.185Z,92.02
2022-12-26T01:11:40.057Z,92.05
2022-12-26T01:14:17.049Z,92.23
2022-12-26T01:16:45.187Z,92.31
2022-12-26T01:19:12.802Z,92.55
2022-12-26T01:21:39.673Z,91.97
2022-12-26T01:24:07.459Z,92.34
2022-12-26T01:26:34.345Z,92.23
2022-12-26T01:29:00.719Z,92.04
2022-12-26T01:31:27.103Z,92.47
2022-12-26T01:33:53.505Z,91.75
2022-12-26T01:36:19.964Z,92.19
2022-12-26T01:38:46.465Z,92.35
2022-12-26T01:41:16.549Z,92.37
2022-12-26T01:43:52.022Z,92.17
2022-12-26T01:46:31.712Z,92.91
2022-12-26T01:49:05.609Z,92.59
2022-12-26T01:51:36.411Z,92.55
2022-12-26T01:54:40.572Z,92.14
2022-12-26T01:56:53.868Z,91.55
2022-12-26T01:59:28.555Z,92.36
2022-12-26T02:01:55.648Z,91.54
2022-12-26T02:04:52.155Z,91.64
2022-12-26T02:07:18.705Z,90.95
2022-12-26T02:09:45.146Z,91.19
2022-12-26T02:12:34.362Z,91.12
2022-12-26T02:15:08.668Z,90.97
2022-12-26T02:17:36.032Z,90.64
2022-12-26T02:20:17.065Z,90.89
2022-12-26T02:23:20.822Z,90.92
2022-12-26T02:26:17.784Z,90.98
2022-12-26T02:28:59.120Z,91.40
2022-12-26T02:31:36.361Z,91.23
2022-12-26T02:34:19.487Z,91.12
2022-12-26T02:37:23.608Z,91.67
2022-12-26T02:40:16.085Z,91.59
2022-12-26T02:42:59.675Z,91.42
2022-12-26T02:45:53.893Z,91.53
2022-12-26T02:48:27.624Z,91.82
2022-12-26T02:51:31.827Z,91.53
2022-12-26T02:54:44.796Z,91.08
2022-12-26T02:57:36.541Z,91.09
2022-12-26T03:00:27.299Z,91.26
2022-12-26T03:03:19.569Z,91.52
2022-12-26T03:06:11.177Z,91.06
2022-12-26T03:09:06.537Z,91.37
2022-12-26T03:11:57.767Z,91.07
2022-12-26T03:14:32.301Z,91.37
2022-12-26T03:17:22.413Z,91.37
2022-12-26T03:19:59.180Z,91.28
2022-12-26T03:22:51.141Z,91.49
2022-12-26T03:26:01.240Z,91.23
2022-12-26T03:28:28.013Z,91.40
2022-12-26T03:30:58.158Z,91.03
2022-12-26T03:33:57.817Z,90.92
2022-12-26T03:36:54.761Z,91.44
2022-12-26T03:40:07.833Z,90.95
2022-12-26T03:43:14.040Z,90.95
2022-12-26T03:46:37.370Z,90.97
2022-12-26T03:49:39.736Z,90.48
2022-12-26T03:52:47.150Z,91.31
2022-12-26T03:55:38.207Z,90.72
2022-12-26T03:58:50.765Z,90.77
2022-12-26T04:01:42.795Z,90.71
2022-12-26T04:04:31.370Z,90.65
2022-12-26T04:07:24.506Z,90.68
2022-12-26T04:10:28.579Z,90.08
2022-12-26T04:13:16.525Z,89.94
2022-12-26T04:16:04.007Z,90.28
2022-12-26T04:18:59.207Z,89.76
2022-12-26T04:22:19.320Z,89.79
2022-12-26T04:25:15.723Z,90.01
2022-12-26T04:28:01.162Z,90.04
2022-12-26T04:30:46.427Z,90.10
2022-12-26T04:33:41.847Z,90.55
2022-12-26T04:36:37.193Z,90.18
2022-12-26T04:39:24.916Z,89.95
2022-12-26T04:42:11.258Z,89.48
2022-12-26T04:44:40.488Z,89.92
2022-12-26T04:47:07.483Z,89.20
2022-12-26T04:50:03.711Z,89.18
2022-12-26T04:52:50.223Z,88.89
2022-12-26T04:55:17.962Z,88.75
2022-12-26T04:57:44.364Z,89.02
2022-12-26T05:00:11.693Z,88.84
2022-12-26T05:02:56.875Z,88.79
2022-12-26T05:05:41.941Z,88.73
2022-12-26T05:08:41.561Z,88.50
2022-12-26T05:11:07.930Z,88.88
2022-12-26T05:13:34.400Z,88.77
2022-12-26T05:16:19.148Z,89.28
2022-12-26T05:19:04.665Z,89.50
2022-12-26T05:21:50.123Z,89.21
2022-12-26T05:24:35.603Z,88.94
2022-12-26T05:27:20.835Z,88.86
2022-12-26T05:29:47.580Z,88.71
2022-12-26T05:32:14.015Z,88.56
2022-12-26T05:34:40.390Z,88.24
2022-12-26T05:37:06.917Z,88.13
2022-12-26T05:39:33.291Z,88.04
2022-12-26T05:41:59.680Z,87.91
2022-12-26T05:44:26.140Z,88.09
2022-12-26T05:46:52.591Z,88.03
2022-12-26T05:49:19.366Z,87.81
2022-12-26T05:51:45.842Z,87.79
2022-12-26T05:54:12.215Z,87.96
2022-12-26T05:56:40.169Z,87.85
2022-12-26T05:59:09.431Z,87.76
2022-12-26T06:01:36.012Z,87.81
2022-12-26T06:04:02.828Z,87.45
2022-12-26T06:06:29.363Z,87.36
2022-12-26T06:08:56.924Z,87.55
2022-12-26T06:11:26.332Z,87.57
2022-12-26T06:13:53.423Z,88.05
2022-12-26T06:16:20.482Z,87.69
2022-12-26T06:18:48.100Z,87.71
2022-12-26T06:21:16.842Z,87.56
2022-12-26T06:23:43.650Z,87.70
2022-12-26T06:26:12.392Z,86.94
2022-12-26T06:28:40.590Z,87.53
2022-12-26T06:31:21.353Z,87.44
2022-12-26T06:33:55.452Z,87.24
2022-12-26T06:36:23.790Z,87.41
2022-12-26T06:38:50.502Z,87.40
2022-12-26T06:41:19.039Z,87.28
2022-12-26T06:43:46.311Z,87.26
2022-12-26T06:46:15.743Z,87.41
2022-12-26T06:48:43.235Z,87.62
2022-12-26T06:51:19.408Z,87.68
2022-12-26T06:53:46.353Z,87.88
2022-12-26T06:56:18.486Z,87.47
2022-12-26T06:58:44.923Z,87.67
2022-12-26T07:01:16.911Z,88.09
2022-12-26T07:03:51.902Z,88.00
2022-12-26T07:06:25.623Z,87.87
2022-12-26T07:08:58.305Z,87.77
2022-12-26T07:11:27.357Z,87.59
2022-12-26T07:13:54.556Z,87.66
2022-12-26T07:16:21.401Z,87.48
2022-12-26T07:18:47.924Z,87.46
2022-12-26T07:21:15.798Z,87.81
2022-12-26T07:23:42.512Z,87.76
2022-12-26T07:26:09.264Z,87.31
2022-12-26T07:28:35.728Z,87.06
2022-12-26T07:31:03.536Z,87.01
2022-12-26T07:33:30.450Z,87.20
2022-12-26T07:36:05.801Z,87.01
2022-12-26T07:38:33.360Z,87.73
2022-12-26T07:41:20.443Z,87.16
2022-12-26T07:43:46.815Z,87.51
2022-12-26T07:46:13.301Z,87.20
2022-12-26T07:48:39.717Z,87.15
2022-12-26T07:51:06.185Z,86.86
2022-12-26T07:53:32.785Z,87.31
2022-12-26T07:55:59.727Z,87.15
2022-12-26T07:58:26.340Z,86.69
2022-12-26T08:00:52.845Z,86.76
2022-12-26T08:03:19.425Z,86.90
2022-12-26T08:05:47.876Z,87.41
2022-12-26T08:08:15.627Z,87.07
2022-12-26T08:10:42.317Z,86.40
2022-12-26T08:13:09.531Z,85.40
2022-12-26T08:15:39.094Z,85.61
2022-12-26T08:18:05.872Z,85.54
2022-12-26T08:20:32.988Z,85.07
2022-12-26T08:22:59.500Z,85.25
2022-12-26T08:25:26.068Z,85.03
2022-12-26T08:27:52.464Z,84.87
2022-12-26T08:30:18.870Z,84.69
2022-12-26T08:32:46.453Z,83.38
2022-12-26T08:35:13.317Z,82.56
2022-12-26T08:37:39.742Z,82.69
2022-12-26T08:40:06.598Z,83.36
2022-12-26T08:42:34.636Z,83.11
2022-12-26T08:45:06.828Z,83.04
2022-12-26T08:47:33.305Z,83.12
2022-12-26T08:49:59.695Z,83.41
2022-12-26T08:52:26.097Z,83.26
2022-12-26T08:54:52.503Z,83.58
2022-12-26T08:57:18.915Z,83.39
2022-12-26T08:59:45.308Z,83.61
2022-12-26T09:02:11.915Z,83.91
2022-12-26T09:04:38.430Z,83.64
2022-12-26T09:07:08.103Z,83.97
2022-12-26T09:09:34.963Z,83.16
2022-12-26T09:12:01.529Z,83.04
2022-12-26T09:14:27.991Z,83.11
2022-12-26T09:16:54.546Z,83.68
2022-12-26T09:19:22.213Z,83.74
2022-12-26T09:22:10.089Z,83.48
2022-12-26T09:24:36.499Z,82.05
2022-12-26T09:27:02.944Z,82.51
2022-12-26T09:29:29.319Z,81.82
2022-12-26T09:31:55.841Z,82.02
2022-12-26T09:34:22.216Z,82.23
2022-12-26T09:36:48.669Z,82.17
2022-12-26T09:39:15.065Z,81.88
2022-12-26T09:41:59.299Z,81.61
2022-12-26T09:44:48.215Z,81.85
2022-12-26T09:47:30.081Z,80.43
2022-12-26T09:50:02.605Z,80.23
2022-12-26T09:52:38.414Z,80.15
2022-12-26T09:55:18.660Z,79.88
2022-12-26T09:57:51.481Z,78.88
2022-12-26T10:00:21.148Z,78.98
2022-12-26T10:02:52.496Z,78.77
2022-12-26T10:05:22.111Z,78.91
2022-12-26T10:07:53.485Z,78.65
2022-12-26T10:10:31.736Z,79.12
2022-12-26T10:13:32.136Z,79.32
2022-12-26T10:16:23.017Z,78.89
2022-12-26T10:19:08.585Z,78.93
2022-12-26T10:21:42.330Z,77.85
2022-12-26T10:24:16.702Z,79.02
2022-12-26T10:26:53.051Z,77.83
2022-12-26T10:29:36.889Z,78.66
2022-12-26T10:32:14.029Z,78.78
2022-12-26T10:34:46.133Z,77.84
2022-12-26T10:37:32.926Z,77.88
2022-12-26T10:40:09.447Z,77.80
2022-12-26T10:42:41.685Z,77.62
2022-12-26T10:45:43.254Z,77.12
2022-12-26T10:48:14.379Z,76.92
2022-12-26T10:50:46.454Z,76.81
2022-12-26T10:53:14.643Z,77.05
2022-12-26T10:55:41.044Z,77.45
2022-12-26T10:58:25.759Z,77.08
2022-12-26T11:00:53.367Z,77.19
2022-12-26T11:03:21.480Z,78.57
2022-12-26T11:06:08.982Z,78.64
2022-12-26T11:08:46.686Z,78.67
2022-12-26T11:11:22.434Z,79.30
2022-12-26T11:14:02.289Z,79.14
2022-12-26T11:16:37.688Z,78.72
2022-12-26T11:19:04.339Z,78.65
2022-12-26T11:21:32.107Z,77.79
2022-12-26T11:24:21.693Z,77.78
2022-12-26T11:26:48.202Z,76.83
2022-12-26T11:29:24.318Z,77.07
2022-12-26T11:31:55.607Z,77.68
2022-12-26T11:34:32.368Z,76.27
2022-12-26T11:37:01.475Z,76.17
2022-12-26T11:39:33.310Z,76.42
2022-12-26T11:42:00.008Z,77.49
2022-12-26T11:44:34.452Z,76.01
2022-12-26T11:47:14.437Z,75.68
2022-12-26T11:49:45.950Z,75.53
2022-12-26T11:52:30.923Z,75.42
2022-12-26T11:54:57.336Z,75.33
2022-12-26T11:57:35.268Z,76.09
2022-12-26T12:00:18.814Z,75.30
2022-12-26T12:02:45.965Z,74.66
2022-12-26T12:05:16.085Z,75.72
2022-12-26T12:08:09.844Z,75.54
2022-12-26T12:10:51.946Z,75.68
2022-12-26T12:13:31.421Z,75.39
2022-12-26T12:16:24.306Z,75.79
2022-12-26T12:19:04.949Z,75.83
2022-12-26T12:21:42.885Z,76.27
2022-12-26T12:24:34.429Z,76.82
2022-12-26T12:27:15.958Z,75.65
2022-12-26T12:30:04.294Z,75.26
2022-12-26T12:33:12.323Z,77.00
2022-12-26T12:35:59.992Z,78.56
2022-12-26T12:38:51.536Z,81.60
2022-12-26T12:42:00.064Z,83.08
2022-12-26T12:44:42.736Z,84.23
2022-12-26T12:47:24.168Z,85.40
2022-12-26T12:50:02.144Z,85.66
2022-12-26T12:52:53.292Z,86.44
2022-12-26T12:55:25.513Z,87.32
2022-12-26T12:58:06.807Z,87.25
2022-12-26T13:00:47.816Z,87.73
2022-12-26T13:03:20.257Z,88.35
2022-12-26T13:06:02.097Z,88.76
2022-12-26T13:08:51.767Z,88.72
2022-12-26T13:11:33.533Z,88.14
2022-12-26T13:14:12.861Z,88.82
2022-12-26T13:16:47.142Z,88.50
2022-12-26T13:19:25.078Z,88.67
2022-12-26T13:21:56.508Z,88.44
2022-12-26T13:24:34.899Z,88.97
2022-12-26T13:27:04.128Z,88.62
2022-12-26T13:29:42.617Z,89.06
2022-12-26T13:32:22.837Z,88.42
2022-12-26T13:34:51.596Z,88.62
2022-12-26T13:37:39.018Z,88.12
2022-12-26T13:40:25.688Z,88.17
2022-12-26T13:43:32.466Z,87.19
2022-12-26T13:45:59.061Z,84.63
2022-12-26T13:48:30.303Z,84.47
2022-12-26T13:51:02.061Z,83.45
2022-12-26T13:53:37.165Z,83.47
2022-12-26T13:56:30.491Z,83.83
2022-12-26T13:59:20.774Z,83.83
2022-12-26T14:01:56.273Z,84.51
2022-12-26T14:04:54.145Z,84.24
2022-12-26T14:08:05.123Z,83.73
2022-12-26T14:11:09.481Z,83.06
2022-12-26T14:14:06.598Z,83.90
2022-12-26T14:16:54.677Z,83.69
2022-12-26T14:19:58.594Z,83.47
2022-12-26T14:22:39.945Z,82.45
2022-12-26T14:25:32.580Z,81.87
2022-12-26T14:28:34.963Z,80.93
2022-12-26T14:31:08.857Z,80.76
2022-12-26T14:34:05.510Z,79.37
2022-12-26T14:36:48.426Z,79.94
2022-12-26T14:39:44.406Z,78.97
2022-12-26T14:42:40.549Z,78.43
2022-12-26T14:45:32.708Z,79.18
2022-12-26T14:47:59.395Z,78.68
2022-12-26T14:50:39.645Z,78.93
2022-12-26T14:53:24.418Z,79.99
2022-12-26T14:56:13.944Z,79.50
2022-12-26T14:58:44.747Z,79.52
2022-12-26T15:01:15.582Z,79.68
2022-12-26T15:03:50.925Z,80.01
2022-12-26T15:06:20.408Z,80.19
2022-12-26T15:09:17.136Z,79.49
2022-12-26T15:12:04.639Z,79.92
2022-12-26T15:14:46.076Z,79.93
2022-12-26T15:17:26.119Z,79.95
2022-12-26T15:20:20.316Z,79.09
2022-12-26T15:23:30.703Z,78.76
2022-12-26T15:26:15.322Z,78.84
2022-12-26T15:29:08.972Z,79.69
2022-12-26T15:31:57.118Z,78.32
2022-12-26T15:34:59.186Z,79.15
2022-12-26T15:38:06.493Z,78.57
2022-12-26T15:40:37.913Z,78.66
2022-12-26T15:43:22.871Z,77.78
2022-12-26T15:46:01.495Z,78.33
2022-12-26T15:48:42.767Z,78.37
2022-12-26T15:51:17.466Z,78.69
2022-12-26T15:54:04.931Z,78.51
2022-12-26T15:56:47.264Z,78.40
2022-12-26T15:59:50.606Z,78.64
2022-12-26T16:02:25.977Z,78.56
2022-12-26T16:04:58.452Z,78.48
2022-12-26T16:07:40.689Z,78.39
2022-12-26T16:10:26.618Z,78.49
2022-12-26T16:13:11.503Z,78.51
2022-12-26T16:15:50.514Z,78.86
2022-12-26T16:18:27.796Z,78.94
2022-12-26T16:21:16.071Z,79.24
2022-12-26T16:23:44.399Z,79.14
2022-12-26T16:26:27.174Z,78.97
2022-12-26T16:28:54.964Z,79.00
2022-12-26T16:31:26.701Z,78.74
2022-12-26T16:33:54.973Z,78.94
2022-12-26T16:36:24.265Z,78.92
2022-12-26T16:38:52.357Z,79.75
2022-12-26T16:41:22.016Z,79.30
2022-12-26T16:43:49.660Z,79.46
2022-12-26T16:46:18.869Z,79.58
2022-12-26T16:48:52.069Z,79.36
2022-12-26T16:51:40.545Z,78.85
2022-12-26T16:54:28.063Z,78.64
2022-12-26T16:57:13.069Z,79.12
2022-12-26T16:59:57.125Z,78.98
2022-12-26T17:02:27.764Z,78.33
2022-12-26T17:05:03.574Z,79.10
2022-12-26T17:07:31.262Z,78.40
2022-12-26T17:10:00.276Z,78.72
2022-12-26T17:12:37.160Z,79.07
2022-12-26T17:15:05.660Z,79.38
2022-12-26T17:17:44.634Z,79.39
2022-12-26T17:20:22.949Z,79.71
2022-12-26T17:22:50.286Z,80.14
2022-12-26T17:25:26.300Z,79.19
2022-12-26T17:28:07.794Z,78.18
2022-12-26T17:30:54.547Z,77.76
2022-12-26T17:33:27.749Z,77.54
2022-12-26T17:37:19.387Z,77.90
2022-12-26T17:38:53.858Z,77.11
2022-12-26T17:41:20.249Z,77.48
2022-12-26T17:43:47.461Z,77.13
2022-12-26T17:46:16.049Z,77.24
2022-12-26T17:48:43.261Z,77.03
2022-12-26T17:51:15.185Z,76.63
2022-12-26T17:53:43.722Z,76.67
2022-12-26T17:56:16.657Z,77.38
2022-12-26T17:58:43.727Z,77.70
2022-12-26T18:01:13.633Z,77.39
2022-12-26T18:03:43.038Z,77.71
2022-12-26T18:06:14.432Z,78.09
2022-12-26T18:08:41.463Z,77.78
2022-12-26T18:11:10.406Z,78.39
2022-12-26T18:13:36.868Z,78.91
2022-12-26T18:16:04.909Z,78.35
2022-12-26T18:18:42.985Z,79.52
2022-12-26T18:21:11.804Z,79.53
2022-12-26T18:23:38.911Z,79.63
2022-12-26T18:26:29.165Z,79.00
2022-12-26T18:28:55.641Z,78.45
2022-12-26T18:31:22.088Z,78.38
2022-12-26T18:33:48.759Z,78.57
2022-12-26T18:36:17.115Z,78.59
2022-12-26T18:38:44.130Z,78.35
2022-12-26T18:41:14.600Z,78.13
2022-12-26T18:43:41.014Z,78.49
2022-12-26T18:46:17.075Z,77.59
2022-12-26T18:48:43.809Z,78.37
2022-12-26T18:51:11.077Z,78.01
2022-12-26T18:53:37.472Z,78.44
2022-12-26T18:56:05.500Z,78.26
2022-12-26T18:58:31.919Z,78.33
2022-12-26T19:01:01.902Z,77.62
2022-12-26T19:03:28.323Z,78.31
2022-12-26T19:05:54.780Z,77.85
2022-12-26T19:08:21.289Z,78.07
2022-12-26T19:10:47.660Z,78.29
2022-12-26T19:13:14.320Z,78.96
2022-12-26T19:15:46.578Z,78.16
2022-12-26T19:18:13.157Z,77.93
2022-12-26T19:20:44.142Z,78.04
2022-12-26T19:23:11.286Z,78.16
2022-12-26T19:25:37.697Z,78.96
2022-12-26T19:28:04.055Z,78.71
2022-12-26T19:30:36.720Z,78.01
2022-12-26T19:33:05.007Z,78.04
2022-12-26T19:35:31.386Z,79.14
2022-12-26T19:37:58.412Z,79.02
2022-12-26T19:40:25.424Z,79.35
2022-12-26T19:42:52.316Z,79.33
2022-12-26T19:45:18.788Z,78.68
2022-12-26T19:47:45.157Z,79.63
2022-12-26T19:50:11.949Z,79.06
2022-12-26T19:52:39.403Z,79.25
2022-12-26T19:55:08.470Z,79.18
2022-12-26T19:57:35.217Z,79.32
2022-12-26T20:00:01.761Z,78.65
2022-12-26T20:02:38.756Z,78.42
2022-12-26T20:05:06.715Z,79.46
2022-12-26T20:07:33.327Z,78.28
2022-12-26T20:09:59.710Z,78.37
2022-12-26T20:12:26.071Z,78.04
2022-12-26T20:14:52.526Z,77.95
2022-12-26T20:17:18.919Z,78.45
2022-12-26T20:19:47.337Z,78.18
2022-12-26T20:22:13.700Z,77.51
2022-12-26T20:24:40.097Z,78.30
2022-12-26T20:27:06.460Z,77.95
2022-12-26T20:29:32.905Z,77.63
2022-12-26T20:31:59.379Z,78.21
2022-12-26T20:34:26.231Z,77.81
2022-12-26T20:36:52.680Z,78.16
2022-12-26T20:39:19.843Z,78.10
2022-12-26T20:41:46.296Z,77.81
2022-12-26T20:44:13.864Z,78.43
2022-12-26T20:46:41.173Z,77.86
2022-12-26T20:49:09.702Z,77.18
2022-12-26T20:51:38.443Z,77.97
2022-12-26T20:54:09.415Z,77.55
2022-12-26T20:56:37.186Z,78.03
2022-12-26T20:59:05.535Z,77.61
2022-12-26T21:01:32.214Z,77.55
2022-12-26T21:03:58.787Z,77.97
2022-12-26T21:06:29.602Z,77.75
2022-12-26T21:08:57.544Z,78.06
2022-12-26T21:11:29.892Z,77.65
2022-12-26T21:13:59.189Z,77.13
2022-12-26T21:16:33.009Z,76.44
2022-12-26T21:18:59.845Z,76.30
2022-12-26T21:21:32.565Z,76.46
2022-12-26T21:24:02.255Z,77.48
2022-12-26T21:26:29.431Z,77.39
2022-12-26T21:29:02.312Z,77.29
2022-12-26T21:31:31.469Z,76.70
2022-12-26T21:33:59.763Z,76.47
2022-12-26T21:36:27.317Z,76.58
2022-12-26T21:38:54.673Z,75.81
2022-12-26T21:41:21.718Z,75.80
2022-12-26T21:43:49.036Z,76.42
2022-12-26T21:46:17.946Z,75.70
2022-12-26T21:48:47.291Z,75.33
2022-12-26T21:51:18.996Z,75.89
2022-12-26T21:53:46.647Z,76.42
2022-12-26T21:56:15.386Z,75.61
2022-12-26T21:59:01.760Z,75.41
2022-12-26T22:01:29.967Z,75.43
2022-12-26T22:04:15.635Z,74.44
2022-12-26T22:06:42.863Z,74.93
2022-12-26T22:09:10.374Z,75.26
2022-12-26T22:11:55.813Z,74.34
2022-12-26T22:14:22.646Z,74.75
2022-12-26T22:16:53.124Z,75.20
2022-12-26T22:19:19.581Z,75.32
2022-12-26T22:21:46.142Z,75.81
2022-12-26T22:24:12.604Z,75.36
2022-12-26T22:26:38.942Z,75.65
2022-12-26T22:29:05.280Z,75.65
2022-12-26T22:31:35.108Z,75.50
2022-12-26T22:34:04.499Z,76.27
2022-12-26T22:36:31.771Z,75.86
2022-12-26T22:38:59.347Z,75.95
2022-12-26T22:41:26.564Z,75.53
2022-12-26T22:43:55.000Z,74.92
2022-12-26T22:46:21.541Z,75.38
2022-12-26T22:48:47.979Z,75.88
2022-12-26T22:51:19.433Z,76.43
2022-12-26T22:53:47.066Z,75.70
2022-12-26T22:56:13.807Z,75.79
2022-12-26T22:58:41.092Z,75.77
2022-12-26T23:01:18.866Z,76.39
2022-12-26T23:03:46.315Z,76.32
2022-12-26T23:06:31.281Z,75.77
2022-12-26T23:09:00.008Z,76.29
2022-12-26T23:11:34.288Z,76.54
2022-12-26T23:14:02.100Z,76.80
2022-12-26T23:16:38.620Z,76.06
2022-12-26T23:19:44.552Z,76.97
2022-12-26T23:22:11.151Z,76.33
2022-12-26T23:24:37.482Z,76.54
2022-12-26T23:27:25.218Z,76.95
2022-12-26T23:30:11.636Z,76.73
2022-12-26T23:32:39.821Z,77.48
2022-12-26T23:35:08.576Z,77.77
2022-12-26T23:37:35.725Z,78.05
2022-12-26T23:40:02.594Z,77.94
2022-12-26T23:42:28.986Z,78.11
2022-12-26T23:44:55.342Z,78.24
2022-12-26T23:47:21.731Z,78.78
2022-12-26T23:49:48.079Z,78.71
2022-12-26T23:52:14.455Z,78.82
2022-12-26T23:54:40.841Z,78.31
2022-12-26T23:57:07.203Z,78.74
2022-12-26T23:59:33.660Z,79.02
